Flight Track Log - Related Links

Times and Time Zones

All times are in EDT time to prevent confusion due to time zone crossing. See the USC105 flight status page for this flight to view local times or setup timezone preferences in your user account.

Time Position Orientation Groundspeed Altitude Reporting Facility
EDT Latitude Longitude Course Direction KTS MPH feet Rate Location/Type
Wed 12:12:23 AM 42.2472 -83.6128 273° West 119 137 2,400  Level Cleveland Center
Wed 12:13:24 AM 42.2442 -83.6544 264° West 116 133 3,300 939 Climbing Cleveland Center
Wed 12:14:18 AM 42.2431 -83.6967 268° West 117 135 4,200 881 Climbing Cleveland Center
Wed 12:15:13 AM 42.2419 -83.7358 268° West 121 139 4,900 879 Climbing Cleveland Center
Wed 12:16:14 AM 42.2386 -83.7806 264° West 119 137 5,900 294 Climbing Cleveland Center
Wed 12:18:37 AM 42.2347 -83.9036 268° West 148 170 5,900  Level Chicago Center
Wed 12:19:38 AM 42.2289 -83.9756 264° West 156 180 5,900 50 Level Chicago Center
Wed 12:20:38 AM 42.2261 -84.0381 267° West 162 186 6,000  Climbing Chicago Center
Wed 12:21:39 AM 42.2219 -84.1033 265° West 168 193 5,900 -50 Descending Chicago Center
Wed 12:22:39 AM 42.2167 -84.1569 262° West 172 198 5,900  Level Chicago Center
Wed 12:23:40 AM 42.2117 -84.2358 265° West 176 203 5,900  Level Chicago Center
Wed 12:24:40 AM 42.2083 -84.2997 266° West 173 199 5,900  Level Chicago Center
Wed 12:25:41 AM 42.2056 -84.3656 267° West 174 200 5,900  Level Chicago Center
Wed 12:27:00 AM 42.1980 -84.4445 263° West  Level FlightAware Approximate
Wed 12:29:42 AM 42.1892 -84.6236 264° West 175 201 5,900  Level Chicago Center
Wed 12:30:42 AM 42.1853 -84.6886 265° West 175 201 5,900  Level Chicago Center
Wed 12:31:43 AM 42.1817 -84.7536 266° West 176 203 5,900  Level Chicago Center
Wed 12:32:43 AM 42.1769 -84.8192 264° West 176 203 5,900  Level Chicago Center
Wed 12:33:44 AM 42.1728 -84.8842 265° West 176 203 5,900  Level Chicago Center
Wed 12:34:00 AM 42.1587 -84.8645 264° West  Level FlightAware Approximate
Wed 12:34:44 AM 42.1681 -84.9494 264° West 176 203 5,900  Level Chicago Center
Wed 12:35:44 AM 42.1644 -85.0128 266° West 174 200 5,900 50 Level Chicago Center
Wed 12:36:45 AM 42.1603 -85.0778 265° West 174 200 6,000  Climbing Chicago Center
Wed 12:37:45 AM 42.1553 -85.1428 264° West 175 201 5,900 -50 Descending Chicago Center
Wed 12:38:46 AM 42.1514 -85.2075 265° West 175 201 5,900  Level Chicago Center
Wed 12:39:46 AM 42.1467 -85.2714 264° West 173 199 5,900  Level Chicago Center
Wed 12:40:46 AM 42.1425 -85.3358 265° West 174 200 5,900  Level Chicago Center
Wed 12:41:47 AM 42.1389 -85.4006 266° West 175 201 5,900  Level Chicago Center
Wed 12:42:47 AM 42.1336 -85.4647 264° West 174 200 5,900  Level Chicago Center
Wed 12:43:47 AM 42.1286 -85.5414 265° West 173 199 5,900  Level Chicago Center
Wed 12:44:48 AM 42.1231 -85.6056 263° West 173 199 5,900  Level Chicago Center
Wed 12:45:48 AM 42.1192 -85.6694 265° West 172 198 5,900  Level Chicago Center
Wed 12:46:48 AM 42.1142 -85.7336 264° West 173 199 5,900  Level Chicago Center
Wed 12:47:49 AM 42.1097 -85.7975 265° West 173 199 5,900  Level Chicago Center
Wed 12:48:49 AM 42.1047 -85.8608 264° West 172 198 5,900  Level Chicago Center
Wed 12:49:49 AM 42.1006 -85.9244 265° West 172 198 5,900 50 Level Chicago Center
Wed 12:50:50 AM 42.0961 -85.9892 265° West 173 199 6,000 50 Climbing Chicago Center
Wed 12:51:50 AM 42.0914 -86.0519 264° West 171 197 6,000  Level Chicago Center
Wed 12:52:50 AM 42.0869 -86.1147 265° West 170 196 6,000  Level Chicago Center
Wed 12:53:51 AM 42.0814 -86.1772 263° West 169 194 6,000  Level Chicago Center
Wed 12:54:51 AM 42.0769 -86.2394 265° West 169 194 6,000  Level Chicago Center
Wed 12:56:00 AM 42.0706 -86.3083 263° West  Level FlightAware Approximate
Wed 12:56:51 AM 42.0678 -86.3636 263° West 167 192 6,000  Level Chicago Center
Wed 12:57:52 AM 42.0625 -86.4275 264° West 171 197 6,000  Level Chicago Center
Wed 12:58:52 AM 42.0586 -86.4894 265° West 167 192 6,000  Level Chicago Center
Wed 12:59:52 AM 42.0528 -86.5531 263° West 170 196 6,000  Level Chicago Center
Wed 01:00:52 AM 42.0478 -86.6150 264° West 169 194 6,000  Level Chicago Center
Wed 01:01:52 AM 42.0433 -86.6789 265° West 171 197 6,000  Level Chicago Center
Wed 01:02:53 AM 42.0389 -86.7419 265° West 170 196 6,000  Level Chicago Center
Wed 01:03:53 AM 42.0336 -86.8072 264° West 169 194 6,000  Level Chicago Center
Wed 01:04:53 AM 42.0286 -86.8694 264° West 169 194 6,000  Level Chicago Center
Wed 01:05:53 AM 42.0239 -86.9308 264° West 167 192 6,000  Level Chicago Center
Wed 01:06:54 AM 42.0175 -86.9922 262° West 167 192 6,000 -50 Level Chicago Center
Wed 01:07:54 AM 42.0119 -87.0531 263° West 166 191 5,900 -50 Descending Chicago Center
Wed 01:08:54 AM 42.0086 -87.1150 266° West 168 193 5,900  Level Chicago Center
Wed 01:09:54 AM 42.0033 -87.1775 264° West 170 196 5,900  Level Chicago Center
Wed 01:10:55 AM 41.9978 -87.2397 263° West 170 196 5,900  Level Chicago Center
Wed 01:11:55 AM 41.9919 -87.3008 263° West 167 192 5,900  Level Chicago Center
Wed 01:12:55 AM 41.9875 -87.3636 265° West 169 194 5,900  Level Chicago Center
Wed 01:13:36 AM 41.9833 -87.4167 264° West 168 193 5,900  Level Chicago TRACON
Wed 01:14:30 AM 41.9833 -87.4667 270° West 170 196 5,900  Level Chicago TRACON
Wed 01:15:31 AM 41.9667 -87.5333 251° West 169 194 5,900  Level Chicago TRACON
Wed 01:16:25 AM 41.9667 -87.5833 270° West 170 196 5,900 -105 Level Chicago TRACON
Wed 01:17:25 AM 41.9667 -87.6500 270° West 172 198 5,700 -450 Descending Chicago TRACON
Wed 01:18:25 AM 41.9500 -87.7167 251° West 186 214 5,000 -400 Descending Chicago TRACON
Wed 01:19:25 AM 41.9500 -87.7833 270° West 167 192 4,900 -50 Descending Chicago TRACON
Wed 01:20:25 AM 41.9500 -87.8500 270° West 161 185 4,900 -450 Level Chicago TRACON
Wed 01:21:25 AM 41.9333 -87.9000 246° West 185 213 4,000 -650 Descending Chicago TRACON
Wed 01:22:25 AM 41.9333 -87.9667 270° West 160 184 3,600 -600 Descending Chicago TRACON
Wed 01:23:25 AM 41.9333 -88.0333 270° West 161 185 2,800 -750 Descending Chicago TRACON
Wed 01:24:25 AM 41.9167 -88.0833 246° West 155 178 2,100 -522 Descending Chicago TRACON
Wed 01:25:20 AM 41.9167 -88.1333 270° West 142 163 1,800 -298 Descending Chicago TRACON
Wed 01:26:26 AM 41.9167 -88.1833 270° West 121 139 1,500 -429 Descending Chicago TRACON
Wed 01:27:26 AM 41.9167 -88.2333 270° West 115 132 900 -600 Descending Chicago TRACON
Wed 01:29:00 AM 41.9000 -88.2333 270° West  Level FlightAware Approximate
Wed 01:36:00 AM 41.9071 -88.2480 270° West  Level Estimated
Wed 01:37:00 AM 41.9071 -88.2480 270° West  Level Estimated

Login

Don't have an account? Register now (free) for customized features, flight alerts, and more!